Stony Hill, Missouri
Current Conditions -  °F | °C
As of 8:35 PM on Friday 19 Dec 2014 (Local Time) from KFYG Reporting Station
Haze Haze  
Wind Chill: 36°   Ceiling: 5500
Heat Index: 36°   Visibility: 6mi
Dew Point: 32°   Wind: 0mph
Humidity: 87%   Direction: NA
Pressure: 30.25"   Gusts: NA
Location:  38.5502°N, 91.2585°W
Report Text: KFYG 200235Z AUTO 00000KT 6SM BR OVC055 02/00 A3025 RMK AO2
Loading
Personal Weather Stations






























Interactive Weather Map New forecast layout! Learn more

10-Day Weather Forecast

Advertisements
Track Severe Weather on mobile